Slocum, Texas
Current Conditions -  °F | °C
As of 3:15 AM on Wednesday 28 Jan 2015 (Local Time) from KPSN Reporting Station
Clear Clear  
Wind Chill: 54°   Ceiling: Unl
Heat Index: 54°   Visibility: 10mi
Dew Point: 44°   Wind: 3mph
Humidity: 67%   Direction: 120°ESE
Pressure: 30.15"   Gusts: NA
Location:  31.6239°N, 95.528°W
Report Text: KPSN 280915Z AUTO 12003KT 10SM CLR 12/06 A3015 RMK AO2 T01240064
Loading
Personal Weather Stations






























Interactive Weather Map New forecast layout! Learn more

10-Day Weather Forecast

Advertisements
Track Severe Weather on mobile